Capitol Logistics 3255




KEYW
Key West International Airport
Key West, Florida
KMIA
Miami International Airport
Miami, Florida

Activity Log

Date Flight Route Aircraft Duration
03/10/2021 CPX3255 EYW V157 DHP SF34 0h 48m
07/05/2020 CPX3255 CARNU DVALL DVALL3 SF34 1h 11m
10/23/2019 CPX655 CARNU DVALL DVALL3 SF34 0h 41m
06/16/2019 CPX655 CARNU DVALL DVALL3 SF34 0h 37m
06/07/2019 CPX655 CARNU DVALL DVALL3 SF34 0h 36m
04/30/2019 CPX655 CARNU DVALL DVALL3 SF34 0h 35m
04/20/2019 CPX655 VFR SF34 0h 35m
04/03/2019 CPX655 CARNU DVALL DVALL3 SF34 0h 50m
03/21/2019 CPX655 CARNU DVALL DVALL3 SF34 0h 52m
03/06/2019 CPX655 CARNU DVALL DVALL3 SF34 0h 54m

Route Details

Aircraft Information
Primary: Saab 340AF
Backup: Not Available
Route Data
Distance: 113nm
Duration: 1h 05m
Recm'd Route: CARNU DVALL DVALL3
Origin Wx: KEYW 180153Z AUTO 06003KT 10SM CLR 26/22 A2992 RMK AO2 SLP131 T02610217
Dest. Wx: KMIA 180153Z 28006KT 10SM CLR 26/18 A2991 RMK AO2 SLP128 T02610178 $
Notes: